sensor_id;sensor_type;location;lat;lon;timestamp;P1;durP1;ratioP1;P2;durP2;ratioP2
21802;SDS011;18591;47.080;22.214;2022-09-12T00:01:06;2.05;;;0.95;;
21802;SDS011;18591;47.080;22.214;2022-09-12T00:03:17;0.65;;;0.60;;
21802;SDS011;18591;47.080;22.214;2022-09-12T00:05:19;4.70;;;0.80;;
21802;SDS011;18591;47.080;22.214;2022-09-12T00:07:22;1.05;;;0.80;;
21802;SDS011;18591;47.080;22.214;2022-09-12T00:09:24;2.10;;;1.02;;
21802;SDS011;18591;47.080;22.214;2022-09-12T00:11:27;3.00;;;1.30;;
21802;SDS011;18591;47.080;22.214;2022-09-12T00:13:29;1.50;;;1.00;;
21802;SDS011;18591;47.080;22.214;2022-09-12T00:15:31;3.83;;;1.17;;
21802;SDS011;18591;47.080;22.214;2022-09-12T00:17:34;1.83;;;1.02;;
21802;SDS011;18591;47.080;22.214;2022-09-12T00:19:37;2.13;;;1.00;;
21802;SDS011;18591;47.080;22.214;2022-09-12T00:21:39;1.65;;;0.90;;
21802;SDS011;18591;47.080;22.214;2022-09-12T00:23:42;6.93;;;1.08;;
21802;SDS011;18591;47.080;22.214;2022-09-12T00:25:46;2.90;;;1.50;;
21802;SDS011;18591;47.080;22.214;2022-09-12T00:27:52;4.28;;;1.00;;
21802;SDS011;18591;47.080;22.214;2022-09-12T00:29:54;1.63;;;0.80;;
21802;SDS011;18591;47.080;22.214;2022-09-12T00:31:56;1.23;;;0.98;;
21802;SDS011;18591;47.080;22.214;2022-09-12T00:34:03;4.68;;;1.10;;
21802;SDS011;18591;47.080;22.214;2022-09-12T00:36:07;5.65;;;1.58;;
21802;SDS011;18591;47.080;22.214;2022-09-12T00:38:16;1.45;;;1.00;;
21802;SDS011;18591;47.080;22.214;2022-09-12T00:40:18;1.65;;;1.10;;
21802;SDS011;18591;47.080;22.214;2022-09-12T00:42:20;3.78;;;1.02;;
21802;SDS011;18591;47.080;22.214;2022-09-12T00:46:27;5.55;;;1.33;;
21802;SDS011;18591;47.080;22.214;2022-09-12T00:48:43;3.22;;;0.88;;
21802;SDS011;18591;47.080;22.214;2022-09-12T00:50:49;3.55;;;1.23;;
21802;SDS011;18591;47.080;22.214;2022-09-12T00:52:56;2.25;;;0.98;;
21802;SDS011;18591;47.080;22.214;2022-09-12T00:55:08;0.70;;;0.70;;
21802;SDS011;18591;47.080;22.214;2022-09-12T00:57:13;4.35;;;0.90;;
21802;SDS011;18591;47.080;22.214;2022-09-12T00:59:30;1.83;;;1.08;;
21802;SDS011;18591;47.080;22.214;2022-09-12T01:01:38;3.13;;;1.02;;
21802;SDS011;18591;47.080;22.214;2022-09-12T01:03:45;1.67;;;1.20;;
21802;SDS011;18591;47.080;22.214;2022-09-12T01:05:58;1.30;;;0.98;;
21802;SDS011;18591;47.080;22.214;2022-09-12T01:08:08;4.47;;;1.02;;
21802;SDS011;18591;47.080;22.214;2022-09-12T01:10:12;1.38;;;0.77;;
21802;SDS011;18591;47.080;22.214;2022-09-12T01:12:15;1.63;;;0.80;;
21802;SDS011;18591;47.080;22.214;2022-09-12T01:14:18;1.92;;;0.90;;
21802;SDS011;18591;47.080;22.214;2022-09-12T01:16:21;1.48;;;0.80;;
21802;SDS011;18591;47.080;22.214;2022-09-12T01:18:58;1.85;;;1.48;;
21802;SDS011;18591;47.080;22.214;2022-09-12T01:26:26;1.85;;;0.90;;
21802;SDS011;18591;47.080;22.214;2022-09-12T01:29:01;1.10;;;1.00;;
21802;SDS011;18591;47.080;22.214;2022-09-12T01:31:16;3.13;;;1.10;;
21802;SDS011;18591;47.080;22.214;2022-09-12T01:38:31;4.47;;;0.90;;
21802;SDS011;18591;47.080;22.214;2022-09-12T01:43:18;3.15;;;1.15;;
21802;SDS011;18591;47.080;22.214;2022-09-12T01:45:38;2.20;;;1.10;;
21802;SDS011;18591;47.080;22.214;2022-09-12T01:47:58;3.05;;;1.30;;
21802;SDS011;18591;47.080;22.214;2022-09-12T01:50:24;2.30;;;0.98;;
21802;SDS011;18591;47.080;22.214;2022-09-12T01:52:52;4.25;;;1.10;;
21802;SDS011;18591;47.080;22.214;2022-09-12T01:55:00;2.55;;;0.85;;
21802;SDS011;18591;47.080;22.214;2022-09-12T01:57:31;2.88;;;1.10;;
21802;SDS011;18591;47.080;22.214;2022-09-12T01:59:39;1.45;;;1.27;;
21802;SDS011;18591;47.080;22.214;2022-09-12T02:02:13;1.70;;;1.20;;
21802;SDS011;18591;47.080;22.214;2022-09-12T02:04:23;0.98;;;0.80;;
21802;SDS011;18591;47.080;22.214;2022-09-12T02:09:08;3.38;;;1.08;;
21802;SDS011;18591;47.080;22.214;2022-09-12T02:11:15;2.53;;;1.00;;
21802;SDS011;18591;47.080;22.214;2022-09-12T02:13:29;1.90;;;1.40;;
21802;SDS011;18591;47.080;22.214;2022-09-12T02:15:42;2.65;;;0.90;;
21802;SDS011;18591;47.080;22.214;2022-09-12T02:17:50;1.20;;;0.80;;
21802;SDS011;18591;47.080;22.214;2022-09-12T02:19:55;1.02;;;0.90;;
21802;SDS011;18591;47.080;22.214;2022-09-12T02:22:04;1.45;;;0.77;;
21802;SDS011;18591;47.080;22.214;2022-09-12T02:24:11;2.28;;;1.10;;
21802;SDS011;18591;47.080;22.214;2022-09-12T02:26:18;1.60;;;1.20;;
21802;SDS011;18591;47.080;22.214;2022-09-12T02:28:30;1.40;;;0.90;;
21802;SDS011;18591;47.080;22.214;2022-09-12T02:30:40;1.75;;;1.30;;
21802;SDS011;18591;47.080;22.214;2022-09-12T02:35:10;6.82;;;2.55;;
21802;SDS011;18591;47.080;22.214;2022-09-12T02:37:44;4.68;;;2.10;;
21802;SDS011;18591;47.080;22.214;2022-09-12T02:39:58;3.67;;;2.47;;
21802;SDS011;18591;47.080;22.214;2022-09-12T02:42:01;4.07;;;2.03;;
21802;SDS011;18591;47.080;22.214;2022-09-12T02:44:04;3.20;;;2.90;;
21802;SDS011;18591;47.080;22.214;2022-09-12T02:46:07;3.35;;;2.45;;
21802;SDS011;18591;47.080;22.214;2022-09-12T02:50:18;3.17;;;2.78;;
21802;SDS011;18591;47.080;22.214;2022-09-12T02:52:20;6.97;;;2.80;;
21802;SDS011;18591;47.080;22.214;2022-09-12T02:54:23;5.63;;;2.97;;
21802;SDS011;18591;47.080;22.214;2022-09-12T02:56:27;3.28;;;2.90;;
21802;SDS011;18591;47.080;22.214;2022-09-12T02:58:31;3.10;;;2.72;;
21802;SDS011;18591;47.080;22.214;2022-09-12T03:00:35;4.90;;;2.40;;
21802;SDS011;18591;47.080;22.214;2022-09-12T03:06:18;4.00;;;2.60;;
21802;SDS011;18591;47.080;22.214;2022-09-12T03:12:27;3.53;;;3.05;;
21802;SDS011;18591;47.080;22.214;2022-09-12T03:19:44;3.20;;;2.90;;
21802;SDS011;18591;47.080;22.214;2022-09-12T03:22:02;4.20;;;2.45;;
21802;SDS011;18591;47.080;22.214;2022-09-12T03:26:20;6.13;;;3.13;;
21802;SDS011;18591;47.080;22.214;2022-09-12T03:28:29;4.05;;;2.80;;
21802;SDS011;18591;47.080;22.214;2022-09-12T03:30:51;5.13;;;2.58;;
21802;SDS011;18591;47.080;22.214;2022-09-12T03:32:55;4.13;;;3.00;;
21802;SDS011;18591;47.080;22.214;2022-09-12T03:34:57;5.03;;;3.08;;
21802;SDS011;18591;47.080;22.214;2022-09-12T03:37:01;3.65;;;3.05;;
21802;SDS011;18591;47.080;22.214;2022-09-12T03:39:03;3.17;;;2.88;;
21802;SDS011;18591;47.080;22.214;2022-09-12T03:41:05;2.67;;;2.47;;
21802;SDS011;18591;47.080;22.214;2022-09-12T03:43:08;4.90;;;2.70;;
21802;SDS011;18591;47.080;22.214;2022-09-12T03:45:11;4.30;;;3.38;;
21802;SDS011;18591;47.080;22.214;2022-09-12T03:47:13;3.60;;;3.08;;
21802;SDS011;18591;47.080;22.214;2022-09-12T03:49:15;2.90;;;2.70;;
21802;SDS011;18591;47.080;22.214;2022-09-12T03:51:18;4.57;;;2.67;;
21802;SDS011;18591;47.080;22.214;2022-09-12T03:53:20;4.03;;;2.42;;
21802;SDS011;18591;47.080;22.214;2022-09-12T03:55:22;4.30;;;2.75;;
21802;SDS011;18591;47.080;22.214;2022-09-12T03:57:24;4.80;;;3.08;;
21802;SDS011;18591;47.080;22.214;2022-09-12T03:59:26;4.82;;;2.70;;
21802;SDS011;18591;47.080;22.214;2022-09-12T04:01:28;3.60;;;2.60;;
21802;SDS011;18591;47.080;22.214;2022-09-12T04:03:31;5.72;;;3.08;;
21802;SDS011;18591;47.080;22.214;2022-09-12T04:05:36;7.43;;;2.83;;
21802;SDS011;18591;47.080;22.214;2022-09-12T04:07:38;3.90;;;2.50;;
21802;SDS011;18591;47.080;22.214;2022-09-12T04:09:41;4.15;;;2.67;;
21802;SDS011;18591;47.080;22.214;2022-09-12T04:11:45;2.95;;;2.65;;
21802;SDS011;18591;47.080;22.214;2022-09-12T04:13:47;6.72;;;2.42;;
21802;SDS011;18591;47.080;22.214;2022-09-12T04:15:57;5.00;;;2.60;;
21802;SDS011;18591;47.080;22.214;2022-09-12T04:18:00;4.28;;;2.70;;
21802;SDS011;18591;47.080;22.214;2022-09-12T04:20:06;3.58;;;2.28;;
21802;SDS011;18591;47.080;22.214;2022-09-12T04:22:08;3.50;;;2.97;;
21802;SDS011;18591;47.080;22.214;2022-09-12T04:24:10;2.63;;;2.42;;
21802;SDS011;18591;47.080;22.214;2022-09-12T04:26:14;3.67;;;2.90;;
21802;SDS011;18591;47.080;22.214;2022-09-12T04:28:20;2.70;;;2.50;;
21802;SDS011;18591;47.080;22.214;2022-09-12T04:30:23;4.93;;;2.45;;
21802;SDS011;18591;47.080;22.214;2022-09-12T04:32:26;4.53;;;2.50;;
21802;SDS011;18591;47.080;22.214;2022-09-12T04:34:30;5.85;;;2.60;;
21802;SDS011;18591;47.080;22.214;2022-09-12T04:36:33;5.28;;;2.70;;
21802;SDS011;18591;47.080;22.214;2022-09-12T04:38:35;3.20;;;2.70;;
21802;SDS011;18591;47.080;22.214;2022-09-12T04:40:38;2.42;;;2.22;;
21802;SDS011;18591;47.080;22.214;2022-09-12T04:42:40;4.10;;;2.63;;
21802;SDS011;18591;47.080;22.214;2022-09-12T04:44:43;10.32;;;3.10;;
21802;SDS011;18591;47.080;22.214;2022-09-12T04:46:48;3.05;;;2.75;;
21802;SDS011;18591;47.080;22.214;2022-09-12T04:48:50;3.70;;;2.45;;
21802;SDS011;18591;47.080;22.214;2022-09-12T04:51:05;4.60;;;2.78;;
21802;SDS011;18591;47.080;22.214;2022-09-12T04:53:11;3.83;;;2.50;;
21802;SDS011;18591;47.080;22.214;2022-09-12T04:55:14;4.50;;;2.63;;
21802;SDS011;18591;47.080;22.214;2022-09-12T04:57:16;6.10;;;3.65;;
21802;SDS011;18591;47.080;22.214;2022-09-12T04:59:19;5.50;;;3.80;;
21802;SDS011;18591;47.080;22.214;2022-09-12T05:01:22;3.53;;;3.20;;
21802;SDS011;18591;47.080;22.214;2022-09-12T05:03:26;5.13;;;4.20;;
21802;SDS011;18591;47.080;22.214;2022-09-12T05:05:29;7.07;;;3.42;;
21802;SDS011;18591;47.080;22.214;2022-09-12T05:07:31;4.20;;;3.38;;
21802;SDS011;18591;47.080;22.214;2022-09-12T05:09:34;4.75;;;2.88;;
21802;SDS011;18591;47.080;22.214;2022-09-12T05:11:37;4.20;;;3.10;;
21802;SDS011;18591;47.080;22.214;2022-09-12T05:14:03;3.65;;;2.42;;
21802;SDS011;18591;47.080;22.214;2022-09-12T05:16:10;3.53;;;3.22;;
21802;SDS011;18591;47.080;22.214;2022-09-12T05:18:14;7.10;;;3.10;;
21802;SDS011;18591;47.080;22.214;2022-09-12T05:20:15;5.97;;;3.60;;
21802;SDS011;18591;47.080;22.214;2022-09-12T05:22:17;2.80;;;2.47;;
21802;SDS011;18591;47.080;22.214;2022-09-12T05:24:19;3.22;;;2.88;;
21802;SDS011;18591;47.080;22.214;2022-09-12T05:26:21;5.45;;;3.60;;
21802;SDS011;18591;47.080;22.214;2022-09-12T05:28:24;3.47;;;3.17;;
21802;SDS011;18591;47.080;22.214;2022-09-12T05:30:29;3.97;;;3.33;;
21802;SDS011;18591;47.080;22.214;2022-09-12T05:32:31;5.63;;;3.35;;
21802;SDS011;18591;47.080;22.214;2022-09-12T05:34:33;6.53;;;3.20;;
21802;SDS011;18591;47.080;22.214;2022-09-12T05:36:35;5.30;;;2.70;;
21802;SDS011;18591;47.080;22.214;2022-09-12T05:38:37;5.53;;;2.70;;
21802;SDS011;18591;47.080;22.214;2022-09-12T05:40:39;3.97;;;3.20;;
21802;SDS011;18591;47.080;22.214;2022-09-12T05:42:41;3.45;;;2.75;;
21802;SDS011;18591;47.080;22.214;2022-09-12T05:44:43;3.35;;;2.80;;
21802;SDS011;18591;47.080;22.214;2022-09-12T05:46:44;3.47;;;3.10;;
21802;SDS011;18591;47.080;22.214;2022-09-12T05:48:51;6.93;;;3.15;;
21802;SDS011;18591;47.080;22.214;2022-09-12T05:51:01;4.93;;;3.10;;
21802;SDS011;18591;47.080;22.214;2022-09-12T05:53:04;3.38;;;2.88;;
21802;SDS011;18591;47.080;22.214;2022-09-12T05:55:06;7.13;;;3.35;;
21802;SDS011;18591;47.080;22.214;2022-09-12T05:57:08;4.47;;;3.10;;
21802;SDS011;18591;47.080;22.214;2022-09-12T05:59:17;4.38;;;2.80;;
21802;SDS011;18591;47.080;22.214;2022-09-12T06:01:21;5.30;;;3.10;;
21802;SDS011;18591;47.080;22.214;2022-09-12T06:03:24;6.03;;;2.60;;
21802;SDS011;18591;47.080;22.214;2022-09-12T06:05:26;3.28;;;2.90;;
21802;SDS011;18591;47.080;22.214;2022-09-12T06:07:28;2.55;;;2.33;;
21802;SDS011;18591;47.080;22.214;2022-09-12T06:09:30;3.03;;;2.72;;
21802;SDS011;18591;47.080;22.214;2022-09-12T06:11:33;5.40;;;2.88;;
21802;SDS011;18591;47.080;22.214;2022-09-12T06:13:38;3.92;;;2.60;;
21802;SDS011;18591;47.080;22.214;2022-09-12T06:15:43;4.03;;;2.90;;
21802;SDS011;18591;47.080;22.214;2022-09-12T06:17:44;3.97;;;3.05;;
21802;SDS011;18591;47.080;22.214;2022-09-12T06:19:51;5.32;;;2.88;;
21802;SDS011;18591;47.080;22.214;2022-09-12T06:21:53;3.85;;;2.85;;
21802;SDS011;18591;47.080;22.214;2022-09-12T06:23:56;8.13;;;3.00;;
21802;SDS011;18591;47.080;22.214;2022-09-12T06:25:59;4.68;;;3.17;;
21802;SDS011;18591;47.080;22.214;2022-09-12T06:28:01;5.65;;;2.53;;
21802;SDS011;18591;47.080;22.214;2022-09-12T06:30:03;4.65;;;2.67;;
21802;SDS011;18591;47.080;22.214;2022-09-12T06:32:07;6.97;;;3.17;;
21802;SDS011;18591;47.080;22.214;2022-09-12T06:34:11;4.63;;;3.13;;
21802;SDS011;18591;47.080;22.214;2022-09-12T06:36:16;4.10;;;2.92;;
21802;SDS011;18591;47.080;22.214;2022-09-12T06:38:22;4.05;;;2.72;;
21802;SDS011;18591;47.080;22.214;2022-09-12T06:40:24;3.20;;;2.90;;
21802;SDS011;18591;47.080;22.214;2022-09-12T06:42:27;6.05;;;2.72;;
21802;SDS011;18591;47.080;22.214;2022-09-12T06:44:30;4.03;;;2.78;;
21802;SDS011;18591;47.080;22.214;2022-09-12T06:46:32;4.28;;;2.83;;
21802;SDS011;18591;47.080;22.214;2022-09-12T06:48:34;3.40;;;2.80;;
21802;SDS011;18591;47.080;22.214;2022-09-12T06:50:42;3.28;;;2.90;;
21802;SDS011;18591;47.080;22.214;2022-09-12T06:52:44;4.70;;;2.50;;
21802;SDS011;18591;47.080;22.214;2022-09-12T06:54:46;7.68;;;3.50;;
21802;SDS011;18591;47.080;22.214;2022-09-12T06:56:48;4.68;;;3.17;;
21802;SDS011;18591;47.080;22.214;2022-09-12T06:58:50;4.05;;;2.85;;
21802;SDS011;18591;47.080;22.214;2022-09-12T07:03:19;6.28;;;3.00;;
21802;SDS011;18591;47.080;22.214;2022-09-12T07:05:21;6.25;;;2.88;;
21802;SDS011;18591;47.080;22.214;2022-09-12T07:07:23;3.47;;;3.17;;
21802;SDS011;18591;47.080;22.214;2022-09-12T07:09:25;5.50;;;2.92;;
21802;SDS011;18591;47.080;22.214;2022-09-12T07:11:29;5.10;;;3.17;;
21802;SDS011;18591;47.080;22.214;2022-09-12T07:13:32;5.35;;;3.28;;
21802;SDS011;18591;47.080;22.214;2022-09-12T07:15:34;4.93;;;3.80;;
21802;SDS011;18591;47.080;22.214;2022-09-12T07:17:36;3.60;;;2.95;;
21802;SDS011;18591;47.080;22.214;2022-09-12T07:19:38;3.88;;;3.00;;
21802;SDS011;18591;47.080;22.214;2022-09-12T07:21:40;5.63;;;3.63;;
21802;SDS011;18591;47.080;22.214;2022-09-12T07:23:42;7.60;;;2.75;;
21802;SDS011;18591;47.080;22.214;2022-09-12T07:25:52;5.55;;;3.70;;
21802;SDS011;18591;47.080;22.214;2022-09-12T07:27:57;5.80;;;3.95;;
21802;SDS011;18591;47.080;22.214;2022-09-12T07:29:59;4.15;;;3.60;;
21802;SDS011;18591;47.080;22.214;2022-09-12T07:32:02;5.60;;;3.53;;
21802;SDS011;18591;47.080;22.214;2022-09-12T07:34:04;4.97;;;3.35;;
21802;SDS011;18591;47.080;22.214;2022-09-12T07:36:08;3.90;;;2.92;;
21802;SDS011;18591;47.080;22.214;2022-09-12T07:38:12;4.32;;;2.78;;
21802;SDS011;18591;47.080;22.214;2022-09-12T07:40:14;2.80;;;2.60;;
21802;SDS011;18591;47.080;22.214;2022-09-12T07:42:16;4.20;;;2.97;;
21802;SDS011;18591;47.080;22.214;2022-09-12T07:44:18;3.15;;;2.85;;
21802;SDS011;18591;47.080;22.214;2022-09-12T07:46:20;3.85;;;2.90;;
21802;SDS011;18591;47.080;22.214;2022-09-12T07:48:22;3.45;;;3.10;;
21802;SDS011;18591;47.080;22.214;2022-09-12T07:50:25;5.00;;;3.20;;
21802;SDS011;18591;47.080;22.214;2022-09-12T07:52:27;2.63;;;2.42;;
21802;SDS011;18591;47.080;22.214;2022-09-12T07:54:28;3.08;;;2.78;;
21802;SDS011;18591;47.080;22.214;2022-09-12T07:56:32;3.05;;;2.80;;
21802;SDS011;18591;47.080;22.214;2022-09-12T07:58:40;3.97;;;3.03;;
21802;SDS011;18591;47.080;22.214;2022-09-12T08:00:43;3.38;;;2.67;;
21802;SDS011;18591;47.080;22.214;2022-09-12T08:02:50;7.78;;;2.95;;
21802;SDS011;18591;47.080;22.214;2022-09-12T08:04:52;3.70;;;3.17;;
21802;SDS011;18591;47.080;22.214;2022-09-12T08:06:54;4.93;;;2.80;;
21802;SDS011;18591;47.080;22.214;2022-09-12T08:08:56;4.00;;;2.75;;
21802;SDS011;18591;47.080;22.214;2022-09-12T08:11:00;4.00;;;2.90;;
21802;SDS011;18591;47.080;22.214;2022-09-12T08:13:04;10.07;;;2.90;;
21802;SDS011;18591;47.080;22.214;2022-09-12T08:15:06;8.55;;;3.50;;
21802;SDS011;18591;47.080;22.214;2022-09-12T08:17:08;6.18;;;3.00;;
21802;SDS011;18591;47.080;22.214;2022-09-12T08:19:10;4.57;;;3.05;;
21802;SDS011;18591;47.080;22.214;2022-09-12T08:21:18;3.65;;;2.78;;
21802;SDS011;18591;47.080;22.214;2022-09-12T08:23:21;3.92;;;3.10;;
21802;SDS011;18591;47.080;22.214;2022-09-12T08:25:23;3.65;;;2.65;;
21802;SDS011;18591;47.080;22.214;2022-09-12T08:27:26;4.32;;;2.78;;
21802;SDS011;18591;47.080;22.214;2022-09-12T08:29:28;10.93;;;2.95;;
21802;SDS011;18591;47.080;22.214;2022-09-12T08:31:29;8.55;;;2.85;;
21802;SDS011;18591;47.080;22.214;2022-09-12T08:33:37;7.88;;;3.00;;
21802;SDS011;18591;47.080;22.214;2022-09-12T08:35:39;4.70;;;3.22;;
21802;SDS011;18591;47.080;22.214;2022-09-12T08:37:41;4.25;;;2.75;;
21802;SDS011;18591;47.080;22.214;2022-09-12T08:39:43;5.78;;;3.13;;
21802;SDS011;18591;47.080;22.214;2022-09-12T08:41:45;2.50;;;2.30;;
21802;SDS011;18591;47.080;22.214;2022-09-12T08:46:06;3.85;;;2.90;;
21802;SDS011;18591;47.080;22.214;2022-09-12T08:48:11;3.15;;;2.65;;
21802;SDS011;18591;47.080;22.214;2022-09-12T08:50:16;3.72;;;2.70;;
21802;SDS011;18591;47.080;22.214;2022-09-12T08:54:27;2.72;;;2.05;;
21802;SDS011;18591;47.080;22.214;2022-09-12T08:56:32;4.72;;;2.20;;
21802;SDS011;18591;47.080;22.214;2022-09-12T08:58:39;4.03;;;2.50;;
21802;SDS011;18591;47.080;22.214;2022-09-12T09:05:05;3.90;;;2.67;;
21802;SDS011;18591;47.080;22.214;2022-09-12T09:11:55;2.63;;;2.28;;
21802;SDS011;18591;47.080;22.214;2022-09-12T09:16:45;4.70;;;2.60;;
21802;SDS011;18591;47.080;22.214;2022-09-12T09:18:50;3.47;;;2.30;;
21802;SDS011;18591;47.080;22.214;2022-09-12T09:20:55;4.03;;;2.95;;
21802;SDS011;18591;47.080;22.214;2022-09-12T09:23:24;3.42;;;2.55;;
21802;SDS011;18591;47.080;22.214;2022-09-12T09:27:47;2.83;;;2.20;;
21802;SDS011;18591;47.080;22.214;2022-09-12T09:30:16;3.40;;;2.67;;
21802;SDS011;18591;47.080;22.214;2022-09-12T09:32:25;5.35;;;2.90;;
21802;SDS011;18591;47.080;22.214;2022-09-12T09:34:29;3.97;;;2.58;;
21802;SDS011;18591;47.080;22.214;2022-09-12T09:43:30;2.90;;;1.83;;
21802;SDS011;18591;47.080;22.214;2022-09-12T09:45:32;2.58;;;2.38;;
21802;SDS011;18591;47.080;22.214;2022-09-12T09:47:34;2.50;;;2.20;;
21802;SDS011;18591;47.080;22.214;2022-09-12T09:49:36;3.00;;;2.20;;
21802;SDS011;18591;47.080;22.214;2022-09-12T09:51:39;2.53;;;2.33;;
21802;SDS011;18591;47.080;22.214;2022-09-12T09:55:54;4.78;;;2.60;;
21802;SDS011;18591;47.080;22.214;2022-09-12T09:57:57;2.25;;;2.05;;
21802;SDS011;18591;47.080;22.214;2022-09-12T10:02:30;3.85;;;2.42;;
21802;SDS011;18591;47.080;22.214;2022-09-12T10:04:33;4.97;;;2.10;;
21802;SDS011;18591;47.080;22.214;2022-09-12T10:06:42;2.47;;;1.90;;
21802;SDS011;18591;47.080;22.214;2022-09-12T10:08:45;2.30;;;2.10;;
21802;SDS011;18591;47.080;22.214;2022-09-12T10:10:52;3.50;;;2.35;;
21802;SDS011;18591;47.080;22.214;2022-09-12T10:15:34;1.90;;;1.80;;
21802;SDS011;18591;47.080;22.214;2022-09-12T10:17:43;3.47;;;2.28;;
21802;SDS011;18591;47.080;22.214;2022-09-12T10:19:46;2.10;;;1.83;;
21802;SDS011;18591;47.080;22.214;2022-09-12T10:22:12;2.70;;;2.38;;
21802;SDS011;18591;47.080;22.214;2022-09-12T10:26:27;4.25;;;2.53;;
21802;SDS011;18591;47.080;22.214;2022-09-12T10:28:36;2.10;;;1.90;;
21802;SDS011;18591;47.080;22.214;2022-09-12T10:30:40;2.72;;;2.08;;
21802;SDS011;18591;47.080;22.214;2022-09-12T10:32:53;2.38;;;2.15;;
21802;SDS011;18591;47.080;22.214;2022-09-12T10:35:03;2.05;;;1.60;;
21802;SDS011;18591;47.080;22.214;2022-09-12T10:39:20;3.70;;;2.20;;
21802;SDS011;18591;47.080;22.214;2022-09-12T10:41:22;1.95;;;1.75;;
21802;SDS011;18591;47.080;22.214;2022-09-12T10:43:29;3.33;;;1.83;;
21802;SDS011;18591;47.080;22.214;2022-09-12T10:45:35;2.72;;;2.13;;
21802;SDS011;18591;47.080;22.214;2022-09-12T10:47:38;2.75;;;2.00;;
21802;SDS011;18591;47.080;22.214;2022-09-12T10:49:40;2.88;;;1.80;;
21802;SDS011;18591;47.080;22.214;2022-09-12T10:51:41;2.05;;;1.90;;
21802;SDS011;18591;47.080;22.214;2022-09-12T10:53:43;2.60;;;1.67;;
21802;SDS011;18591;47.080;22.214;2022-09-12T11:00:48;1.92;;;1.70;;
21802;SDS011;18591;47.080;22.214;2022-09-12T11:03:05;2.00;;;1.80;;
21802;SDS011;18591;47.080;22.214;2022-09-12T11:07:45;4.00;;;2.10;;
21802;SDS011;18591;47.080;22.214;2022-09-12T11:17:02;2.72;;;1.80;;
21802;SDS011;18591;47.080;22.214;2022-09-12T11:22:10;2.00;;;1.77;;
21802;SDS011;18591;47.080;22.214;2022-09-12T11:24:38;1.73;;;1.60;;
21802;SDS011;18591;47.080;22.214;2022-09-12T11:26:58;1.67;;;1.58;;
21802;SDS011;18591;47.080;22.214;2022-09-12T11:33:52;5.95;;;1.88;;
21802;SDS011;18591;47.080;22.214;2022-09-12T11:35:57;2.10;;;1.75;;
21802;SDS011;18591;47.080;22.214;2022-09-12T11:38:07;1.95;;;1.75;;
21802;SDS011;18591;47.080;22.214;2022-09-12T11:42:42;2.35;;;1.80;;
21802;SDS011;18591;47.080;22.214;2022-09-12T11:44:47;2.38;;;1.85;;
21802;SDS011;18591;47.080;22.214;2022-09-12T11:46:59;2.50;;;1.80;;
21802;SDS011;18591;47.080;22.214;2022-09-12T11:51:18;1.92;;;1.73;;
21802;SDS011;18591;47.080;22.214;2022-09-12T11:53:27;1.85;;;1.67;;
21802;SDS011;18591;47.080;22.214;2022-09-12T11:55:52;4.35;;;1.85;;
21802;SDS011;18591;47.080;22.214;2022-09-12T11:57:59;1.67;;;1.58;;
21802;SDS011;18591;47.080;22.214;2022-09-12T12:02:26;2.10;;;1.90;;
21802;SDS011;18591;47.080;22.214;2022-09-12T12:04:45;2.05;;;1.88;;
21802;SDS011;18591;47.080;22.214;2022-09-12T12:07:04;2.95;;;2.42;;
21802;SDS011;18591;47.080;22.214;2022-09-12T12:09:08;2.83;;;1.90;;
21802;SDS011;18591;47.080;22.214;2022-09-12T12:11:15;2.40;;;2.20;;
21802;SDS011;18591;47.080;22.214;2022-09-12T12:15:54;2.38;;;2.17;;
21802;SDS011;18591;47.080;22.214;2022-09-12T12:18:13;2.28;;;1.67;;
21802;SDS011;18591;47.080;22.214;2022-09-12T12:20:19;1.63;;;1.52;;
21802;SDS011;18591;47.080;22.214;2022-09-12T12:22:24;1.67;;;1.58;;
21802;SDS011;18591;47.080;22.214;2022-09-12T12:24:26;2.65;;;1.70;;
21802;SDS011;18591;47.080;22.214;2022-09-12T12:30:57;1.40;;;1.30;;
21802;SDS011;18591;47.080;22.214;2022-09-12T12:33:06;4.25;;;1.48;;
21802;SDS011;18591;47.080;22.214;2022-09-12T12:35:36;1.50;;;1.30;;
21802;SDS011;18591;47.080;22.214;2022-09-12T12:41:49;1.88;;;1.50;;
21802;SDS011;18591;47.080;22.214;2022-09-12T12:43:52;2.17;;;1.65;;
21802;SDS011;18591;47.080;22.214;2022-09-12T12:45:58;5.53;;;1.80;;
21802;SDS011;18591;47.080;22.214;2022-09-12T12:48:07;1.95;;;1.80;;
21802;SDS011;18591;47.080;22.214;2022-09-12T12:52:15;4.20;;;1.90;;
21802;SDS011;18591;47.080;22.214;2022-09-12T12:56:41;2.97;;;1.77;;
21802;SDS011;18591;47.080;22.214;2022-09-12T12:58:44;1.92;;;1.73;;
21802;SDS011;18591;47.080;22.214;2022-09-12T13:00:47;1.83;;;1.60;;
21802;SDS011;18591;47.080;22.214;2022-09-12T13:03:24;3.13;;;1.77;;
21802;SDS011;18591;47.080;22.214;2022-09-12T13:07:44;1.75;;;1.50;;
21802;SDS011;18591;47.080;22.214;2022-09-12T13:09:49;1.90;;;1.30;;
21802;SDS011;18591;47.080;22.214;2022-09-12T13:12:00;2.45;;;1.58;;
21802;SDS011;18591;47.080;22.214;2022-09-12T13:14:06;2.50;;;1.40;;
21802;SDS011;18591;47.080;22.214;2022-09-12T13:16:53;1.67;;;1.58;;
21802;SDS011;18591;47.080;22.214;2022-09-12T13:19:03;1.98;;;1.77;;
21802;SDS011;18591;47.080;22.214;2022-09-12T13:21:19;2.00;;;1.25;;
21802;SDS011;18591;47.080;22.214;2022-09-12T13:23:27;1.77;;;1.67;;
21802;SDS011;18591;47.080;22.214;2022-09-12T13:25:34;3.30;;;1.83;;
21802;SDS011;18591;47.080;22.214;2022-09-12T13:27:37;2.20;;;1.63;;
21802;SDS011;18591;47.080;22.214;2022-09-12T13:29:40;2.15;;;1.95;;
21802;SDS011;18591;47.080;22.214;2022-09-12T13:31:43;2.35;;;2.05;;
21802;SDS011;18591;47.080;22.214;2022-09-12T13:35:59;4.40;;;1.70;;
21802;SDS011;18591;47.080;22.214;2022-09-12T13:38:11;1.60;;;1.50;;
21802;SDS011;18591;47.080;22.214;2022-09-12T13:43:13;3.03;;;1.70;;
21802;SDS011;18591;47.080;22.214;2022-09-12T13:47:31;1.65;;;1.55;;
21802;SDS011;18591;47.080;22.214;2022-09-12T13:49:37;1.60;;;1.40;;
21802;SDS011;18591;47.080;22.214;2022-09-12T13:51:41;3.28;;;1.92;;
21802;SDS011;18591;47.080;22.214;2022-09-12T13:53:44;5.22;;;2.10;;
21802;SDS011;18591;47.080;22.214;2022-09-12T13:55:49;2.55;;;2.10;;
21802;SDS011;18591;47.080;22.214;2022-09-12T13:57:59;3.38;;;1.80;;
21802;SDS011;18591;47.080;22.214;2022-09-12T14:00:16;2.15;;;1.95;;
21802;SDS011;18591;47.080;22.214;2022-09-12T14:02:26;2.05;;;1.95;;
21802;SDS011;18591;47.080;22.214;2022-09-12T14:04:30;2.08;;;1.85;;
21802;SDS011;18591;47.080;22.214;2022-09-12T14:06:51;2.00;;;1.60;;
21802;SDS011;18591;47.080;22.214;2022-09-12T14:08:54;1.50;;;1.40;;
21802;SDS011;18591;47.080;22.214;2022-09-12T14:11:06;1.70;;;1.60;;
21802;SDS011;18591;47.080;22.214;2022-09-12T14:13:11;2.42;;;1.42;;
21802;SDS011;18591;47.080;22.214;2022-09-12T14:15:19;1.98;;;1.88;;
21802;SDS011;18591;47.080;22.214;2022-09-12T14:17:31;2.70;;;1.45;;
21802;SDS011;18591;47.080;22.214;2022-09-12T14:19:36;2.00;;;1.70;;
21802;SDS011;18591;47.080;22.214;2022-09-12T14:21:39;1.73;;;1.63;;
21802;SDS011;18591;47.080;22.214;2022-09-12T14:23:42;2.22;;;2.03;;
21802;SDS011;18591;47.080;22.214;2022-09-12T14:25:48;1.98;;;1.88;;
21802;SDS011;18591;47.080;22.214;2022-09-12T14:27:53;2.22;;;2.03;;
21802;SDS011;18591;47.080;22.214;2022-09-12T14:32:25;3.58;;;1.88;;
21802;SDS011;18591;47.080;22.214;2022-09-12T14:34:28;6.10;;;2.03;;
21802;SDS011;18591;47.080;22.214;2022-09-12T14:36:34;3.63;;;1.70;;
21802;SDS011;18591;47.080;22.214;2022-09-12T14:38:43;2.90;;;1.63;;
21802;SDS011;18591;47.080;22.214;2022-09-12T14:40:51;3.65;;;2.00;;
21802;SDS011;18591;47.080;22.214;2022-09-12T14:43:00;3.00;;;2.08;;